Time;durP1;ratioP1;P1;durP2;ratioP2;P2;SDS_P1;SDS_P2;PMS_P1;PMS_P2;Temp;Humidity;BMP_temperature;BMP_pressure;BME280_temperature;BME280_humidity;BME280_pressure;Samples;Min_cycle;Max_cycle;Signal;HPM_P1;HPM_P2
2023/03/14 00:02:21;;;;;;;17.88;6.43;;;;;;;;;;4844967;29;20037;-79
2023/03/14 00:04:47;;;;;;;9.80;3.35;;;;;;;;;;4843690;29;20038;-79
2023/03/14 00:07:14;;;;;;;5.95;2.70;;;;;;;;;;4847262;29;20544;-79
2023/03/14 00:09:40;;;;;;;6.80;2.80;;;;;;;;;;4847571;29;20063;-79
2023/03/14 00:12:07;;;;;;;7.53;3.05;;;;;;;;;;4843151;29;20040;-78
2023/03/14 00:14:33;;;;;;;6.50;3.97;;;;;;;;;;4844870;29;20550;-79
2023/03/14 00:16:59;;;;;;;6.80;3.20;;;;;;;;;;4849401;29;20018;-79
2023/03/14 00:19:25;;;;;;;8.27;2.97;;;;;;;;;;4850744;29;20037;-78
2023/03/14 00:21:51;;;;;;;6.07;2.35;;;;;;;;;;4847964;29;20035;-78
2023/03/14 00:24:17;;;;;;;5.53;2.70;;;;;;;;;;4851652;29;20046;-80
2023/03/14 00:26:43;;;;;;;5.75;2.70;;;;;;;;;;4846437;29;20037;-80
2023/03/14 00:29:09;;;;;;;8.48;3.00;;;;;;;;;;4846279;29;20029;-79
2023/03/14 00:31:36;;;;;;;6.60;2.53;;;;;;;;;;4847219;29;20042;-78
2023/03/14 00:34:03;;;;;;;7.82;2.72;;;;;;;;;;4845598;29;20048;-78
2023/03/14 00:36:29;;;;;;;4.05;2.15;;;;;;;;;;4836416;29;20093;-79
2023/03/14 00:38:55;;;;;;;6.60;2.30;;;;;;;;;;4840950;29;20022;-78
2023/03/14 00:41:22;;;;;;;5.00;2.28;;;;;;;;;;4847005;29;20038;-78
2023/03/14 00:43:49;;;;;;;3.15;2.85;;;;;;;;;;4843097;29;20107;-79
2023/03/14 00:46:15;;;;;;;6.68;2.78;;;;;;;;;;4839044;29;20481;-79
2023/03/14 00:48:41;;;;;;;4.07;2.15;;;;;;;;;;4850019;29;20030;-79
2023/03/14 00:51:08;;;;;;;8.35;2.97;;;;;;;;;;4847714;29;20030;-79
2023/03/14 00:53:38;;;;;;;7.15;2.78;;;;;;;;;;4845944;29;20026;-80
2023/03/14 00:56:05;;;;;;;4.18;2.47;;;;;;;;;;4840958;29;20042;-78
2023/03/14 00:58:31;;;;;;;3.38;2.35;;;;;;;;;;4850526;29;20038;-79
2023/03/14 01:00:57;;;;;;;3.75;2.13;;;;;;;;;;4844753;29;20033;-79
2023/03/14 01:03:24;;;;;;;7.80;3.03;;;;;;;;;;4839224;29;20396;-79
2023/03/14 01:05:50;;;;;;;4.32;2.30;;;;;;;;;;4837560;29;20090;-78
2023/03/14 01:08:16;;;;;;;3.83;2.35;;;;;;;;;;4840529;29;20030;-79
2023/03/14 01:10:43;;;;;;;7.65;2.78;;;;;;;;;;4847619;29;20101;-79
2023/03/14 01:13:09;;;;;;;6.18;2.30;;;;;;;;;;4846284;29;20106;-78
2023/03/14 01:15:36;;;;;;;3.90;2.22;;;;;;;;;;4850683;29;20025;-78
2023/03/14 01:18:02;;;;;;;4.82;2.35;;;;;;;;;;4843103;29;20030;-78
2023/03/14 01:20:28;;;;;;;5.20;2.50;;;;;;;;;;4841608;29;20142;-78
2023/03/14 01:22:54;;;;;;;4.28;2.53;;;;;;;;;;4838540;29;20030;-78
2023/03/14 01:25:21;;;;;;;2.92;2.35;;;;;;;;;;4851808;29;20046;-78
2023/03/14 01:27:47;;;;;;;5.70;2.53;;;;;;;;;;4851019;29;20058;-78
2023/03/14 01:30:13;;;;;;;6.25;4.00;;;;;;;;;;4845809;29;20021;-78
2023/03/14 01:32:39;;;;;;;2.85;1.88;;;;;;;;;;4847081;29;20070;-79
2023/03/14 01:35:05;;;;;;;2.58;1.98;;;;;;;;;;4844513;29;20034;-78
2023/03/14 01:37:31;;;;;;;4.78;2.10;;;;;;;;;;4843876;29;20105;-79
2023/03/14 01:39:57;;;;;;;5.07;2.88;;;;;;;;;;4839315;29;20501;-79
2023/03/14 01:42:23;;;;;;;6.07;2.17;;;;;;;;;;4839876;29;20330;-79
2023/03/14 01:44:52;;;;;;;3.47;1.83;;;;;;;;;;4848338;29;20045;-79
2023/03/14 01:47:18;;;;;;;2.70;2.35;;;;;;;;;;4847140;29;20050;-79
2023/03/14 01:49:47;;;;;;;4.70;2.40;;;;;;;;;;4846288;29;20053;-79
2023/03/14 01:52:19;;;;;;;9.55;2.13;;;;;;;;;;4849457;29;20034;-78
2023/03/14 01:54:46;;;;;;;4.97;2.67;;;;;;;;;;4838866;29;20030;-80
2023/03/14 01:57:31;;;;;;;3.15;1.90;;;;;;;;;;4839682;29;20043;-80
2023/03/14 02:00:13;;;;;;;5.22;2.42;;;;;;;;;;4844301;29;20022;-79
2023/03/14 02:02:43;;;;;;;3.80;2.17;;;;;;;;;;4848351;29;20026;-79
2023/03/14 02:05:11;;;;;;;4.03;2.30;;;;;;;;;;4838782;29;20030;-79
2023/03/14 02:07:40;;;;;;;3.13;2.25;;;;;;;;;;4843207;29;20045;-79
2023/03/14 02:10:06;;;;;;;5.80;2.17;;;;;;;;;;4842344;29;20544;-80
2023/03/14 02:12:33;;;;;;;4.47;2.00;;;;;;;;;;4834857;29;20034;-80
2023/03/14 02:14:59;;;;;;;7.45;2.38;;;;;;;;;;4836225;29;20102;-79
2023/03/14 02:17:25;;;;;;;3.28;2.33;;;;;;;;;;4837337;29;20069;-79
2023/03/14 02:19:54;;;;;;;4.68;2.38;;;;;;;;;;4834325;29;20114;-79
2023/03/14 02:22:21;;;;;;;2.22;1.95;;;;;;;;;;4828652;29;20418;-79
2023/03/14 02:25:06;;;;;;;2.55;1.55;;;;;;;;;;4841737;29;20382;-79
2023/03/14 02:27:33;;;;;;;2.75;1.83;;;;;;;;;;4841868;29;20033;-79
2023/03/14 02:30:04;;;;;;;6.35;2.20;;;;;;;;;;4835204;29;20392;-80
2023/03/14 02:32:31;;;;;;;2.10;1.90;;;;;;;;;;4838468;29;20033;-80
2023/03/14 02:34:58;;;;;;;3.33;2.13;;;;;;;;;;4836097;29;20041;-79
2023/03/14 02:37:27;;;;;;;1.60;1.50;;;;;;;;;;4833326;29;20037;-80
2023/03/14 02:39:53;;;;;;;2.88;2.03;;;;;;;;;;4835983;29;20053;-79
2023/03/14 02:42:20;;;;;;;2.90;2.08;;;;;;;;;;4834304;29;20030;-79
2023/03/14 02:44:50;;;;;;;4.57;1.85;;;;;;;;;;4842918;29;20034;-79
2023/03/14 02:47:16;;;;;;;3.90;1.63;;;;;;;;;;4842091;29;20025;-81
2023/03/14 02:49:43;;;;;;;1.95;1.73;;;;;;;;;;4839275;29;20026;-78
2023/03/14 02:52:09;;;;;;;1.73;1.52;;;;;;;;;;4838804;29;20076;-79
2023/03/14 02:54:35;;;;;;;1.80;1.70;;;;;;;;;;4841156;29;20040;-79
2023/03/14 02:57:01;;;;;;;3.83;1.70;;;;;;;;;;4846749;29;20026;-79
2023/03/14 02:59:27;;;;;;;4.90;1.88;;;;;;;;;;4838322;29;20533;-79
2023/03/14 03:01:53;;;;;;;1.83;1.73;;;;;;;;;;4832670;29;20033;-79
2023/03/14 03:04:20;;;;;;;1.80;1.60;;;;;;;;;;4833464;29;20137;-79
2023/03/14 03:06:46;;;;;;;2.17;1.60;;;;;;;;;;4838132;29;20023;-80
2023/03/14 03:09:12;;;;;;;3.42;1.73;;;;;;;;;;4834387;29;20485;-80
2023/03/14 03:11:38;;;;;;;1.70;1.60;;;;;;;;;;4840833;29;20045;-80
2023/03/14 03:14:05;;;;;;;2.58;1.70;;;;;;;;;;4839405;29;20041;-79
2023/03/14 03:16:31;;;;;;;2.50;1.80;;;;;;;;;;4825154;29;20121;-80
2023/03/14 03:18:57;;;;;;;3.28;1.92;;;;;;;;;;4836603;29;20094;-79
2023/03/14 03:21:23;;;;;;;3.92;2.30;;;;;;;;;;4837800;29;20558;-79
2023/03/14 03:23:49;;;;;;;2.70;1.85;;;;;;;;;;4836939;29;20025;-79
2023/03/14 03:26:15;;;;;;;3.95;1.80;;;;;;;;;;4849899;29;20093;-79
2023/03/14 03:28:41;;;;;;;2.45;1.67;;;;;;;;;;4836266;29;20026;-80
2023/03/14 03:31:09;;;;;;;1.52;1.42;;;;;;;;;;4839249;29;20026;-80
2023/03/14 03:33:36;;;;;;;1.60;1.50;;;;;;;;;;4840813;29;20037;-80
2023/03/14 03:36:02;;;;;;;1.60;1.50;;;;;;;;;;4841737;29;20067;-80
2023/03/14 03:38:28;;;;;;;1.83;1.70;;;;;;;;;;4837800;29;20041;-79
2023/03/14 03:40:54;;;;;;;4.13;1.90;;;;;;;;;;4839483;29;20022;-80
2023/03/14 03:43:20;;;;;;;2.28;1.90;;;;;;;;;;4835784;29;20022;-80
2023/03/14 03:45:46;;;;;;;2.95;1.90;;;;;;;;;;4836416;29;20094;-80
2023/03/14 03:48:12;;;;;;;3.40;1.77;;;;;;;;;;4836323;29;20087;-80
2023/03/14 03:50:44;;;;;;;2.58;1.65;;;;;;;;;;4838919;29;20030;-79
2023/03/14 03:53:10;;;;;;;3.97;1.73;;;;;;;;;;4832504;29;20038;-81
2023/03/14 03:55:36;;;;;;;2.80;1.70;;;;;;;;;;4844453;29;20026;-80
2023/03/14 03:58:02;;;;;;;5.53;1.58;;;;;;;;;;4846799;29;20061;-79
2023/03/14 04:00:28;;;;;;;3.38;1.70;;;;;;;;;;4841275;29;20525;-79
2023/03/14 04:02:54;;;;;;;2.35;1.60;;;;;;;;;;4845683;29;20426;-80
2023/03/14 04:05:20;;;;;;;1.63;1.50;;;;;;;;;;4842101;29;20034;-80
2023/03/14 04:07:46;;;;;;;2.40;1.45;;;;;;;;;;4843848;29;20031;-80
2023/03/14 04:10:12;;;;;;;3.92;1.70;;;;;;;;;;4842947;29;20148;-80
2023/03/14 04:12:38;;;;;;;1.85;1.60;;;;;;;;;;4843473;29;20041;-79
2023/03/14 04:15:05;;;;;;;3.67;1.77;;;;;;;;;;4845590;29;20515;-79
2023/03/14 04:17:31;;;;;;;1.52;1.42;;;;;;;;;;4841490;29;20098;-80
2023/03/14 04:19:57;;;;;;;1.52;1.42;;;;;;;;;;4848103;29;20087;-79
2023/03/14 04:22:23;;;;;;;2.45;1.80;;;;;;;;;;4844327;29;20473;-78
2023/03/14 04:24:49;;;;;;;4.43;1.48;;;;;;;;;;4844659;29;20642;-80
2023/03/14 04:27:15;;;;;;;2.10;1.30;;;;;;;;;;4843917;29;20110;-78
2023/03/14 04:29:42;;;;;;;2.08;1.70;;;;;;;;;;4839554;29;20129;-79
2023/03/14 04:32:08;;;;;;;3.28;1.70;;;;;;;;;;4838268;29;20022;-79
2023/03/14 04:34:34;;;;;;;4.32;1.60;;;;;;;;;;4845805;29;20026;-80
2023/03/14 04:37:00;;;;;;;1.63;1.52;;;;;;;;;;4838794;29;20490;-80
2023/03/14 04:39:26;;;;;;;1.92;1.58;;;;;;;;;;4841631;29;20472;-79
2023/03/14 04:41:52;;;;;;;3.55;1.70;;;;;;;;;;4837605;29;20049;-80
2023/03/14 04:44:18;;;;;;;3.72;1.75;;;;;;;;;;4839742;29;20293;-78
2023/03/14 04:46:44;;;;;;;2.03;1.45;;;;;;;;;;4841176;29;20061;-80
2023/03/14 04:49:10;;;;;;;1.70;1.60;;;;;;;;;;4841401;29;20083;-80
2023/03/14 04:51:36;;;;;;;3.15;1.77;;;;;;;;;;4842200;29;20030;-80
2023/03/14 04:54:03;;;;;;;3.00;1.65;;;;;;;;;;4837367;29;20053;-79
2023/03/14 04:56:29;;;;;;;2.05;1.63;;;;;;;;;;4841585;29;20026;-78
2023/03/14 04:58:55;;;;;;;1.80;1.67;;;;;;;;;;4840841;29;20508;-79
2023/03/14 05:01:21;;;;;;;2.05;1.70;;;;;;;;;;4840546;29;20030;-79
2023/03/14 05:03:47;;;;;;;2.08;1.88;;;;;;;;;;4841960;29;20026;-79
2023/03/14 05:06:13;;;;;;;1.65;1.40;;;;;;;;;;4837897;29;20061;-80
2023/03/14 05:08:39;;;;;;;3.20;1.92;;;;;;;;;;4844665;29;20034;-80
2023/03/14 05:11:05;;;;;;;3.33;1.80;;;;;;;;;;4844507;29;20092;-80
2023/03/14 05:13:31;;;;;;;3.97;2.53;;;;;;;;;;4846891;29;20034;-79
2023/03/14 05:16:04;;;;;;;2.90;1.63;;;;;;;;;;4838502;29;20034;-80
2023/03/14 05:18:30;;;;;;;6.60;1.67;;;;;;;;;;4836267;29;20084;-80
2023/03/14 05:20:56;;;;;;;1.60;1.50;;;;;;;;;;4843889;29;20033;-81
2023/03/14 05:23:22;;;;;;;2.83;1.80;;;;;;;;;;4844338;29;20239;-79
2023/03/14 05:25:48;;;;;;;3.85;2.13;;;;;;;;;;4859904;29;20242;-79
2023/03/14 05:28:14;;;;;;;3.30;1.75;;;;;;;;;;4869062;29;20033;-79
2023/03/14 05:30:40;;;;;;;1.50;1.40;;;;;;;;;;4864429;29;20025;-78
2023/03/14 05:33:06;;;;;;;3.47;1.67;;;;;;;;;;4866353;29;20108;-79
2023/03/14 05:35:32;;;;;;;1.50;1.40;;;;;;;;;;4869733;29;20037;-79
2023/03/14 05:37:58;;;;;;;3.10;1.60;;;;;;;;;;4867684;29;20125;-79
2023/03/14 05:40:25;;;;;;;2.50;2.17;;;;;;;;;;4842494;29;20034;-80
2023/03/14 05:42:52;;;;;;;1.77;1.67;;;;;;;;;;4865966;29;20037;-78
2023/03/14 05:45:18;;;;;;;1.60;1.50;;;;;;;;;;4862341;29;20041;-79
2023/03/14 05:47:44;;;;;;;1.60;1.50;;;;;;;;;;4869910;29;20036;-78
2023/03/14 05:50:10;;;;;;;2.05;1.75;;;;;;;;;;4864390;29;20033;-78
2023/03/14 05:52:37;;;;;;;2.10;1.67;;;;;;;;;;4867558;29;20033;-78
2023/03/14 05:55:03;;;;;;;5.57;2.10;;;;;;;;;;4860361;29;20034;-79
2023/03/14 05:57:29;;;;;;;2.15;1.40;;;;;;;;;;4868423;29;20089;-79
2023/03/14 05:59:55;;;;;;;2.58;1.90;;;;;;;;;;4862242;29;20034;-79
2023/03/14 06:02:21;;;;;;;3.47;1.52;;;;;;;;;;4861800;29;20026;-79
2023/03/14 06:04:47;;;;;;;3.75;1.70;;;;;;;;;;4862266;29;20056;-79
2023/03/14 06:07:13;;;;;;;4.40;1.95;;;;;;;;;;4860715;29;20037;-79
2023/03/14 06:09:39;;;;;;;2.42;1.50;;;;;;;;;;4864681;29;20086;-79
2023/03/14 06:12:05;;;;;;;2.65;1.70;;;;;;;;;;4862953;29;20560;-79
2023/03/14 06:14:32;;;;;;;2.03;1.55;;;;;;;;;;4862292;29;20037;-79
2023/03/14 06:16:58;;;;;;;1.58;1.48;;;;;;;;;;4845919;29;20480;-79
2023/03/14 06:19:25;;;;;;;2.47;1.60;;;;;;;;;;4855256;29;20030;-79
2023/03/14 06:21:51;;;;;;;4.57;1.67;;;;;;;;;;4852093;29;20120;-79
2023/03/14 06:24:17;;;;;;;2.80;1.63;;;;;;;;;;4857978;29;20030;-80
2023/03/14 06:26:43;;;;;;;3.63;1.70;;;;;;;;;;4837015;29;20427;-80
2023/03/14 06:29:10;;;;;;;2.85;1.65;;;;;;;;;;4844536;29;20102;-80
2023/03/14 06:31:36;;;;;;;2.63;1.98;;;;;;;;;;4840890;29;20264;-79
2023/03/14 06:34:02;;;;;;;1.80;1.60;;;;;;;;;;4835308;29;20541;-79
2023/03/14 06:36:28;;;;;;;1.77;1.67;;;;;;;;;;4843475;29;20101;-80
2023/03/14 06:38:54;;;;;;;2.47;1.70;;;;;;;;;;4843684;29;20037;-79
2023/03/14 06:41:23;;;;;;;2.15;1.70;;;;;;;;;;4845635;29;20049;-79
2023/03/14 06:43:49;;;;;;;2.20;1.60;;;;;;;;;;4846588;29;20038;-79
2023/03/14 06:46:15;;;;;;;4.07;2.25;;;;;;;;;;4844522;29;20034;-78
2023/03/14 06:48:41;;;;;;;5.68;1.60;;;;;;;;;;4841147;29;20356;-79
2023/03/14 06:51:07;;;;;;;2.65;1.80;;;;;;;;;;4840901;29;20030;-79
2023/03/14 06:53:33;;;;;;;1.67;1.55;;;;;;;;;;4843335;29;20017;-79
2023/03/14 06:55:59;;;;;;;2.47;1.98;;;;;;;;;;4839185;29;20087;-78
2023/03/14 06:58:26;;;;;;;2.38;1.60;;;;;;;;;;4842361;29;20037;-78
2023/03/14 07:00:53;;;;;;;2.38;1.75;;;;;;;;;;4845158;29;20137;-78
2023/03/14 07:03:19;;;;;;;3.72;2.22;;;;;;;;;;4843916;29;20078;-78
2023/03/14 07:05:45;;;;;;;1.80;1.70;;;;;;;;;;4842237;29;20068;-79
2023/03/14 07:08:11;;;;;;;2.13;1.92;;;;;;;;;;4842276;29;20054;-79
2023/03/14 07:10:37;;;;;;;3.10;2.10;;;;;;;;;;4840491;29;20491;-78
2023/03/14 07:13:03;;;;;;;2.17;1.88;;;;;;;;;;4844109;29;20112;-79
2023/03/14 07:15:29;;;;;;;3.05;2.42;;;;;;;;;;4843124;29;20030;-78
2023/03/14 07:17:55;;;;;;;2.35;2.05;;;;;;;;;;4840179;29;20039;-78
2023/03/14 07:20:23;;;;;;;2.20;2.00;;;;;;;;;;4846393;29;20022;-80
2023/03/14 07:22:52;;;;;;;6.82;2.30;;;;;;;;;;4847447;29;20078;-78
2023/03/14 07:25:18;;;;;;;1.92;1.70;;;;;;;;;;4847262;29;20049;-78
2023/03/14 07:27:45;;;;;;;3.40;1.85;;;;;;;;;;4842286;29;20026;-79
2023/03/14 07:30:11;;;;;;;3.97;1.98;;;;;;;;;;4850833;29;20026;-79
2023/03/14 07:32:37;;;;;;;2.17;1.67;;;;;;;;;;4851679;29;20025;-79
2023/03/14 07:35:04;;;;;;;2.78;2.50;;;;;;;;;;4846373;29;20497;-78
2023/03/14 07:37:30;;;;;;;4.90;1.95;;;;;;;;;;4843666;29;20035;-79
2023/03/14 07:39:56;;;;;;;3.15;2.50;;;;;;;;;;4847854;29;20026;-79
2023/03/14 07:42:22;;;;;;;3.72;2.30;;;;;;;;;;4848400;29;20030;-79
2023/03/14 07:44:48;;;;;;;2.33;1.67;;;;;;;;;;4849681;29;20039;-80
2023/03/14 07:47:14;;;;;;;2.50;1.77;;;;;;;;;;4851354;29;20040;-78
2023/03/14 07:49:40;;;;;;;2.28;1.90;;;;;;;;;;4847816;29;20026;-79
2023/03/14 07:52:06;;;;;;;4.72;2.10;;;;;;;;;;4852782;29;20038;-79
2023/03/14 07:54:32;;;;;;;3.78;1.98;;;;;;;;;;4842797;29;20488;-79
2023/03/14 07:57:00;;;;;;;3.05;2.00;;;;;;;;;;4850165;29;20053;-79
2023/03/14 07:59:26;;;;;;;3.28;2.13;;;;;;;;;;4848978;29;20022;-79
2023/03/14 08:01:52;;;;;;;4.95;2.53;;;;;;;;;;4848066;29;20038;-78
2023/03/14 08:04:18;;;;;;;4.03;2.10;;;;;;;;;;4839158;29;20034;-79
2023/03/14 08:06:44;;;;;;;3.67;2.22;;;;;;;;;;4846398;29;20037;-79
2023/03/14 08:09:11;;;;;;;3.90;2.17;;;;;;;;;;4846310;29;20034;-78
2023/03/14 08:11:37;;;;;;;3.47;2.17;;;;;;;;;;4845111;29;20537;-79
2023/03/14 08:14:03;;;;;;;5.75;2.15;;;;;;;;;;4848549;29;20034;-79
2023/03/14 08:16:29;;;;;;;4.18;2.15;;;;;;;;;;4844019;29;20097;-80
2023/03/14 08:18:56;;;;;;;5.50;2.30;;;;;;;;;;4840497;29;20485;-78
2023/03/14 08:21:22;;;;;;;4.15;2.25;;;;;;;;;;4850087;29;20053;-79
2023/03/14 08:23:48;;;;;;;5.57;2.00;;;;;;;;;;4851679;29;20034;-78
2023/03/14 08:26:14;;;;;;;3.55;2.20;;;;;;;;;;4852928;29;20057;-78
2023/03/14 08:28:40;;;;;;;3.97;2.00;;;;;;;;;;4852011;29;20089;-78
2023/03/14 08:31:06;;;;;;;2.88;2.30;;;;;;;;;;4851148;29;20031;-77
2023/03/14 08:33:32;;;;;;;4.22;1.98;;;;;;;;;;4846908;29;20029;-78
2023/03/14 08:36:00;;;;;;;4.32;2.50;;;;;;;;;;4848170;29;20393;-78
2023/03/14 08:38:26;;;;;;;10.13;1.85;;;;;;;;;;4849293;29;20038;-79
2023/03/14 08:40:56;;;;;;;5.50;2.40;;;;;;;;;;4852886;29;20054;-79
2023/03/14 08:43:23;;;;;;;8.00;2.80;;;;;;;;;;4845530;29;20030;-79
2023/03/14 08:45:49;;;;;;;4.43;2.30;;;;;;;;;;4851179;29;20061;-78
2023/03/14 08:48:15;;;;;;;6.18;2.47;;;;;;;;;;4843798;29;20064;-79
2023/03/14 08:50:41;;;;;;;3.38;2.47;;;;;;;;;;4849129;29;20037;-79
2023/03/14 08:53:07;;;;;;;3.85;2.15;;;;;;;;;;4850208;29;20149;-78
2023/03/14 08:55:33;;;;;;;7.38;3.55;;;;;;;;;;4845132;29;20034;-79
2023/03/14 08:57:59;;;;;;;5.75;2.10;;;;;;;;;;4845287;29;20040;-78
2023/03/14 09:00:25;;;;;;;3.83;2.30;;;;;;;;;;4844232;29;20069;-79
2023/03/14 09:02:51;;;;;;;4.43;2.50;;;;;;;;;;4843890;29;20097;-78
2023/03/14 09:05:17;;;;;;;6.30;2.53;;;;;;;;;;4848177;29;20045;-78
2023/03/14 09:07:43;;;;;;;4.45;3.03;;;;;;;;;;4842839;29;20030;-78
2023/03/14 09:10:10;;;;;;;6.78;2.28;;;;;;;;;;4846555;29;20050;-78
2023/03/14 09:12:36;;;;;;;4.78;2.60;;;;;;;;;;4828972;29;20422;-78
2023/03/14 09:15:02;;;;;;;5.60;2.50;;;;;;;;;;4842318;29;20344;-78
2023/03/14 09:17:28;;;;;;;7.68;2.65;;;;;;;;;;4847879;29;20026;-80
2023/03/14 09:19:54;;;;;;;4.45;2.15;;;;;;;;;;4851068;29;20033;-79
2023/03/14 09:22:21;;;;;;;7.18;3.70;;;;;;;;;;4846821;29;20037;-78
2023/03/14 09:24:47;;;;;;;6.22;2.53;;;;;;;;;;4846269;29;20124;-78
2023/03/14 09:27:13;;;;;;;7.95;3.55;;;;;;;;;;4850528;29;20068;-79
2023/03/14 09:29:39;;;;;;;6.45;3.22;;;;;;;;;;4844886;29;20037;-78
2023/03/14 09:32:05;;;;;;;5.22;2.50;;;;;;;;;;4845244;29;20145;-79
2023/03/14 09:34:31;;;;;;;6.78;2.63;;;;;;;;;;4839782;29;20039;-78
2023/03/14 09:36:57;;;;;;;6.20;2.58;;;;;;;;;;4841473;29;20034;-78
2023/03/14 09:39:23;;;;;;;6.47;2.70;;;;;;;;;;4841504;29;20461;-79
2023/03/14 09:41:51;;;;;;;6.57;3.30;;;;;;;;;;4845101;29;20038;-78
2023/03/14 09:44:17;;;;;;;5.80;2.50;;;;;;;;;;4844416;29;20102;-78
2023/03/14 09:46:47;;;;;;;7.28;2.38;;;;;;;;;;4843049;29;20091;-79
2023/03/14 09:49:25;;;;;;;7.10;3.42;;;;;;;;;;4844610;29;20026;-78
2023/03/14 09:51:54;;;;;;;3.80;2.40;;;;;;;;;;4847075;29;20679;-78
2023/03/14 09:54:32;;;;;;;8.18;3.40;;;;;;;;;;4843147;29;20038;-78
2023/03/14 09:56:58;;;;;;;4.47;2.15;;;;;;;;;;4853217;29;20392;-79
2023/03/14 09:59:26;;;;;;;4.43;2.88;;;;;;;;;;4847462;29;20348;-78
2023/03/14 10:01:53;;;;;;;6.22;2.97;;;;;;;;;;4847015;29;20037;-78
2023/03/14 10:04:22;;;;;;;7.15;2.60;;;;;;;;;;4849908;29;20041;-79
2023/03/14 10:06:49;;;;;;;5.60;2.63;;;;;;;;;;4844428;29;20026;-79
2023/03/14 10:09:24;;;;;;;4.13;2.10;;;;;;;;;;4843349;29;20043;-79
2023/03/14 10:11:52;;;;;;;5.65;2.38;;;;;;;;;;4841649;29;20063;-80
2023/03/14 10:14:31;;;;;;;7.28;2.80;;;;;;;;;;4845345;29;20041;-78
2023/03/14 10:17:04;;;;;;;4.53;3.03;;;;;;;;;;4849777;29;20034;-79
2023/03/14 10:19:30;;;;;;;10.68;3.00;;;;;;;;;;4850003;29;20037;-78
2023/03/14 10:21:57;;;;;;;5.15;3.28;;;;;;;;;;4844410;29;20085;-79
2023/03/14 10:24:26;;;;;;;6.88;2.88;;;;;;;;;;4854288;29;20052;-80
2023/03/14 10:26:53;;;;;;;5.85;3.22;;;;;;;;;;4867567;29;20045;-80
2023/03/14 10:29:21;;;;;;;5.40;3.03;;;;;;;;;;4867000;29;20033;-79
2023/03/14 10:31:47;;;;;;;7.00;2.38;;;;;;;;;;4862890;29;20472;-78
2023/03/14 10:34:17;;;;;;;5.47;2.17;;;;;;;;;;4860270;29;20125;-79
2023/03/14 10:36:43;;;;;;;3.92;2.30;;;;;;;;;;4858141;29;20044;-79
2023/03/14 10:39:18;;;;;;;5.85;2.45;;;;;;;;;;4869917;29;20035;-79
2023/03/14 10:41:48;;;;;;;3.85;1.73;;;;;;;;;;4862837;29;20037;-78
2023/03/14 10:44:16;;;;;;;4.32;2.20;;;;;;;;;;4863926;29;20071;-78
2023/03/14 10:46:42;;;;;;;3.13;2.20;;;;;;;;;;4861311;29;20045;-79
2023/03/14 10:49:23;;;;;;;4.35;1.80;;;;;;;;;;4861144;29;20055;-78
2023/03/14 10:51:49;;;;;;;4.28;2.25;;;;;;;;;;4856407;29;20409;-79
2023/03/14 10:54:26;;;;;;;4.88;1.92;;;;;;;;;;4869991;29;20037;-80
2023/03/14 10:57:00;;;;;;;6.28;2.08;;;;;;;;;;4868615;29;20040;-79
2023/03/14 10:59:28;;;;;;;2.65;1.73;;;;;;;;;;4864096;29;20051;-80
2023/03/14 11:01:59;;;;;;;6.80;3.25;;;;;;;;;;4869229;29;20629;-80
2023/03/14 11:04:37;;;;;;;3.22;1.90;;;;;;;;;;4847688;29;20045;-80
2023/03/14 11:07:03;;;;;;;4.68;1.88;;;;;;;;;;4854051;29;20037;-79
2023/03/14 11:09:32;;;;;;;2.83;1.92;;;;;;;;;;4869162;29;20045;-79
2023/03/14 11:12:03;;;;;;;3.83;1.90;;;;;;;;;;4865427;29;20446;-79
2023/03/14 11:14:32;;;;;;;2.33;1.90;;;;;;;;;;4872412;29;20025;-79
2023/03/14 11:16:58;;;;;;;2.05;1.85;;;;;;;;;;4869904;29;20043;-79
2023/03/14 11:19:46;;;;;;;4.25;2.05;;;;;;;;;;4864480;29;20063;-79
2023/03/14 11:22:22;;;;;;;3.50;2.10;;;;;;;;;;4868827;29;20041;-78
2023/03/14 11:24:54;;;;;;;3.95;1.80;;;;;;;;;;4853821;29;20039;-79
2023/03/14 11:27:50;;;;;;;1.77;1.52;;;;;;;;;;4847116;29;20041;-79
2023/03/14 11:30:21;;;;;;;3.83;1.60;;;;;;;;;;4784950;29;20039;-79
2023/03/14 11:32:51;;;;;;;3.85;1.80;;;;;;;;;;4845226;29;20059;-79
2023/03/14 11:35:19;;;;;;;4.38;2.42;;;;;;;;;;4847813;29;20034;-81
2023/03/14 11:37:48;;;;;;;3.08;1.98;;;;;;;;;;4848507;29;20034;-79
2023/03/14 11:40:18;;;;;;;3.03;1.80;;;;;;;;;;4846655;29;20030;-80
2023/03/14 11:42:45;;;;;;;3.55;1.67;;;;;;;;;;4849539;29;20030;-80
2023/03/14 11:45:23;;;;;;;3.17;1.60;;;;;;;;;;4845478;29;20076;-79
2023/03/14 11:47:56;;;;;;;4.20;1.92;;;;;;;;;;4843796;29;20499;-79
2023/03/14 11:50:27;;;;;;;6.72;2.90;;;;;;;;;;4846919;29;20030;-80
2023/03/14 11:52:58;;;;;;;3.15;2.17;;;;;;;;;;4849043;29;20033;-79
2023/03/14 11:55:35;;;;;;;7.03;2.80;;;;;;;;;;4848975;29;20030;-79
2023/03/14 11:58:04;;;;;;;4.18;2.15;;;;;;;;;;4852518;29;20042;-80
2023/03/14 12:00:30;;;;;;;4.55;2.60;;;;;;;;;;4851913;29;20034;-79
2023/03/14 12:03:06;;;;;;;4.53;2.45;;;;;;;;;;4848136;29;20065;-80
2023/03/14 12:05:35;;;;;;;9.75;1.98;;;;;;;;;;4846914;29;20038;-80
2023/03/14 12:08:10;;;;;;;3.30;2.10;;;;;;;;;;4846476;29;20066;-79
2023/03/14 12:10:40;;;;;;;4.32;3.15;;;;;;;;;;4844322;29;20030;-79
2023/03/14 12:13:10;;;;;;;3.28;2.17;;;;;;;;;;4848328;29;20095;-79
2023/03/14 12:15:39;;;;;;;2.70;2.00;;;;;;;;;;4849428;29;20083;-79
2023/03/14 12:18:19;;;;;;;3.20;1.77;;;;;;;;;;4853621;29;20061;-81
2023/03/14 12:20:52;;;;;;;4.80;2.33;;;;;;;;;;4846295;29;20090;-79
2023/03/14 12:23:18;;;;;;;4.57;1.95;;;;;;;;;;4847591;29;20034;-80
2023/03/14 12:25:44;;;;;;;2.03;1.58;;;;;;;;;;4855945;29;20101;-79
2023/03/14 12:28:21;;;;;;;1.92;1.73;;;;;;;;;;4869938;29;20029;-79
2023/03/14 12:30:47;;;;;;;2.08;1.73;;;;;;;;;;4865993;29;20544;-79
2023/03/14 12:33:34;;;;;;;2.33;1.70;;;;;;;;;;4863955;29;20065;-80
2023/03/14 12:36:01;;;;;;;4.30;2.30;;;;;;;;;;4848384;29;20373;-79
2023/03/14 12:38:42;;;;;;;3.45;2.20;;;;;;;;;;4872454;29;20108;-79
2023/03/14 12:41:34;;;;;;;5.65;3.67;;;;;;;;;;4865051;29;20501;-79
2023/03/14 12:44:20;;;;;;;4.85;2.22;;;;;;;;;;4868931;29;20053;-78
2023/03/14 12:46:46;;;;;;;;;;;;;;;;;;4870269;29;20038;-79
2023/03/14 12:49:12;;;;;;;;;;;;;;;;;;4873521;29;19922;-79
2023/03/14 12:51:39;;;;;;;3.35;2.92;;;;;;;;;;4866687;29;19991;-79
2023/03/14 12:54:21;;;;;;;6.13;3.92;;;;;;;;;;4866730;29;20038;-79
2023/03/14 12:56:47;;;;;;;6.03;3.72;;;;;;;;;;4863172;29;20037;-79
2023/03/14 12:59:19;;;;;;;7.38;5.80;;;;;;;;;;4865578;29;20106;-79
2023/03/14 13:01:54;;;;;;;3.95;3.45;;;;;;;;;;4863676;29;20037;-79
2023/03/14 13:04:26;;;;;;;4.03;2.97;;;;;;;;;;4866997;29;20473;-79
2023/03/14 13:06:53;;;;;;;4.28;3.88;;;;;;;;;;4870621;29;20030;-79
2023/03/14 13:09:29;;;;;;;4.78;3.70;;;;;;;;;;4870197;29;20037;-78
2023/03/14 13:11:56;;;;;;;6.75;3.88;;;;;;;;;;4868001;29;20041;-79
2023/03/14 13:14:23;;;;;;;2.67;2.42;;;;;;;;;;4868070;29;20046;-79
2023/03/14 13:16:49;;;;;;;3.67;2.60;;;;;;;;;;4865246;29;20033;-78
2023/03/14 13:19:24;;;;;;;3.15;2.10;;;;;;;;;;4866977;29;20037;-79
2023/03/14 13:21:51;;;;;;;3.65;2.20;;;;;;;;;;4864668;29;20113;-79
2023/03/14 13:24:24;;;;;;;2.47;2.17;;;;;;;;;;4867410;29;20049;-78
2023/03/14 13:26:52;;;;;;;3.38;2.90;;;;;;;;;;4849902;29;20090;-78
2023/03/14 13:29:31;;;;;;;6.10;4.18;;;;;;;;;;4852607;29;20040;-78
2023/03/14 13:31:58;;;;;;;8.95;7.72;;;;;;;;;;4847856;29;20068;-79
2023/03/14 13:34:26;;;;;;;5.78;4.53;;;;;;;;;;4849550;29;20034;-81
2023/03/14 13:36:53;;;;;;;2.80;2.60;;;;;;;;;;4848452;29;20042;-79
2023/03/14 13:39:24;;;;;;;8.90;5.28;;;;;;;;;;4843158;29;20034;-79
2023/03/14 13:41:50;;;;;;;3.80;3.22;;;;;;;;;;4842149;29;20030;-80
2023/03/14 13:44:27;;;;;;;2.95;2.60;;;;;;;;;;4844767;29;20034;-79
2023/03/14 13:46:58;;;;;;;4.60;3.38;;;;;;;;;;4846333;29;20114;-78
2023/03/14 13:49:25;;;;;;;3.08;2.78;;;;;;;;;;4847700;29;20030;-80
2023/03/14 13:51:52;;;;;;;2.17;1.98;;;;;;;;;;4845817;29;20063;-79
2023/03/14 13:54:19;;;;;;;3.15;2.30;;;;;;;;;;4847474;29;20041;-77
2023/03/14 13:56:46;;;;;;;4.43;3.15;;;;;;;;;;4847690;29;20104;-80
2023/03/14 13:59:22;;;;;;;3.08;2.78;;;;;;;;;;4851172;29;20037;-81
2023/03/14 14:01:48;;;;;;;3.47;3.03;;;;;;;;;;4850441;29;20038;-82
2023/03/14 14:04:19;;;;;;;3.10;2.72;;;;;;;;;;4846450;29;20034;-82
2023/03/14 14:06:47;;;;;;;3.45;2.03;;;;;;;;;;4848014;29;20044;-80
2023/03/14 14:09:18;;;;;;;3.95;3.55;;;;;;;;;;4848604;29;20323;-81
2023/03/14 14:11:59;;;;;;;4.78;3.00;;;;;;;;;;4847650;29;20038;-80
2023/03/14 14:14:29;;;;;;;4.45;3.00;;;;;;;;;;4843120;29;20086;-81
2023/03/14 14:16:56;;;;;;;3.13;2.40;;;;;;;;;;4845645;29;20081;-81
2023/03/14 14:19:24;;;;;;;2.88;2.25;;;;;;;;;;4848107;29;20030;-81
2023/03/14 14:21:50;;;;;;;2.80;2.03;;;;;;;;;;4844980;29;20106;-80
2023/03/14 14:24:16;;;;;;;3.95;2.63;;;;;;;;;;4850352;29;20131;-79
2023/03/14 14:26:53;;;;;;;7.43;3.42;;;;;;;;;;4846492;29;20401;-79
2023/03/14 14:29:27;;;;;;;16.38;8.38;;;;;;;;;;4842746;29;20492;-79
2023/03/14 14:32:01;;;;;;;25.93;11.40;;;;;;;;;;4848771;29;20030;-79
2023/03/14 14:34:27;;;;;;;9.70;4.80;;;;;;;;;;4829317;29;20071;-83
2023/03/14 14:36:54;;;;;;;12.98;5.15;;;;;;;;;;4840021;29;20382;-81
2023/03/14 14:39:21;;;;;;;9.25;4.32;;;;;;;;;;4847313;29;20026;-81
2023/03/14 14:41:51;;;;;;;6.20;3.25;;;;;;;;;;4852464;29;20018;-80
2023/03/14 14:44:18;;;;;;;8.55;4.20;;;;;;;;;;4847886;29;20030;-80
2023/03/14 14:46:44;;;;;;;18.42;6.35;;;;;;;;;;4849404;29;20030;-79
2023/03/14 14:49:13;;;;;;;5.78;3.30;;;;;;;;;;4849205;29;20030;-79